sensor_id;sensor_type;location;lat;lon;timestamp;pressure;altitude;pressure_sealevel;temperature;humidity
11712;BME280;5912;51.034;6.984;2023-04-09T00:01:08;56590.72;;;-142.13;74.92
11712;BME280;5912;51.034;6.984;2023-04-09T00:03:35;56586.69;;;-142.13;74.95
11712;BME280;5912;51.034;6.984;2023-04-09T00:06:01;56604.72;;;-142.13;75.11
11712;BME280;5912;51.034;6.984;2023-04-09T00:08:26;56568.66;;;-142.13;75.06
11712;BME280;5912;51.034;6.984;2023-04-09T00:10:52;56596.72;;;-142.13;75.37
11712;BME280;5912;51.034;6.984;2023-04-09T00:13:18;56584.69;;;-142.13;75.01
11712;BME280;5912;51.034;6.984;2023-04-09T00:15:44;56596.72;;;-142.13;74.78
11712;BME280;5912;51.034;6.984;2023-04-09T00:18:10;56576.69;;;-142.13;74.90
11712;BME280;5912;51.034;6.984;2023-04-09T00:20:35;56592.72;;;-142.13;74.69
11712;BME280;5912;51.034;6.984;2023-04-09T00:23:01;56584.69;;;-142.13;74.76
11712;BME280;5912;51.034;6.984;2023-04-09T00:25:26;56598.72;;;-142.13;74.74
11712;BME280;5912;51.034;6.984;2023-04-09T00:27:53;56616.75;;;-142.13;74.88
11712;BME280;5912;51.034;6.984;2023-04-09T00:30:18;56592.72;;;-142.13;74.90
11712;BME280;5912;51.034;6.984;2023-04-09T00:32:43;56580.69;;;-142.13;75.06
11712;BME280;5912;51.034;6.984;2023-04-09T00:35:09;56636.78;;;-142.13;74.69
11712;BME280;5912;51.034;6.984;2023-04-09T00:37:35;56572.69;;;-142.13;74.90
11712;BME280;5912;51.034;6.984;2023-04-09T00:40:00;56608.75;;;-142.13;75.01
11712;BME280;5912;51.034;6.984;2023-04-09T00:42:25;56596.72;;;-142.13;74.95
11712;BME280;5912;51.034;6.984;2023-04-09T00:44:51;56534.63;;;-142.13;74.97
11712;BME280;5912;51.034;6.984;2023-04-09T00:47:17;56586.69;;;-142.13;75.18
11712;BME280;5912;51.034;6.984;2023-04-09T00:49:42;56582.69;;;-142.13;75.16
11712;BME280;5912;51.034;6.984;2023-04-09T00:52:08;56602.72;;;-142.13;75.18
11712;BME280;5912;51.034;6.984;2023-04-09T00:54:34;56594.72;;;-142.13;74.81
11712;BME280;5912;51.034;6.984;2023-04-09T00:57:00;56608.75;;;-142.13;75.09
11712;BME280;5912;51.034;6.984;2023-04-09T00:59:25;56568.66;;;-142.13;74.94
11712;BME280;5912;51.034;6.984;2023-04-09T01:01:51;56604.72;;;-142.13;75.16
11712;BME280;5912;51.034;6.984;2023-04-09T01:04:16;56584.69;;;-142.13;75.32
11712;BME280;5912;51.034;6.984;2023-04-09T01:06:52;56640.78;;;-142.13;75.34
11712;BME280;5912;51.034;6.984;2023-04-09T01:09:47;56618.75;;;-142.13;75.69
11712;BME280;5912;51.034;6.984;2023-04-09T01:15:05;56568.66;;;-142.13;75.67
11712;BME280;5912;51.034;6.984;2023-04-09T01:17:42;56614.75;;;-142.13;75.60
11712;BME280;5912;51.034;6.984;2023-04-09T01:22:56;56622.75;;;-142.13;75.51
11712;BME280;5912;51.034;6.984;2023-04-09T01:29:02;56568.66;;;-142.13;75.48
11712;BME280;5912;51.034;6.984;2023-04-09T01:31:26;56600.72;;;-142.13;75.48
11712;BME280;5912;51.034;6.984;2023-04-09T01:33:52;56624.75;;;-142.13;75.67
11712;BME280;5912;51.034;6.984;2023-04-09T01:36:18;56576.69;;;-142.13;75.52
11712;BME280;5912;51.034;6.984;2023-04-09T01:38:45;56612.75;;;-142.13;75.79
11712;BME280;5912;51.034;6.984;2023-04-09T01:41:17;56612.75;;;-142.13;75.90
11712;BME280;5912;51.034;6.984;2023-04-09T01:43:44;56630.78;;;-142.13;76.16
11712;BME280;5912;51.034;6.984;2023-04-09T01:46:10;56620.75;;;-142.13;75.67
11712;BME280;5912;51.034;6.984;2023-04-09T01:48:36;56624.75;;;-142.13;75.85
11712;BME280;5912;51.034;6.984;2023-04-09T01:51:02;56620.75;;;-142.13;75.58
11712;BME280;5912;51.034;6.984;2023-04-09T01:53:28;56592.72;;;-142.13;75.93
11712;BME280;5912;51.034;6.984;2023-04-09T01:55:55;56636.78;;;-142.13;76.08
11712;BME280;5912;51.034;6.984;2023-04-09T01:58:21;56628.78;;;-142.13;75.90
11712;BME280;5912;51.034;6.984;2023-04-09T02:00:47;56612.75;;;-142.13;76.34
11712;BME280;5912;51.034;6.984;2023-04-09T02:03:20;56616.75;;;-142.13;76.50
11712;BME280;5912;51.034;6.984;2023-04-09T02:05:54;56632.78;;;-142.13;76.73
11712;BME280;5912;51.034;6.984;2023-04-09T02:08:22;56604.72;;;-142.13;76.23
11712;BME280;5912;51.034;6.984;2023-04-09T02:10:54;56620.75;;;-142.13;76.57
11712;BME280;5912;51.034;6.984;2023-04-09T02:13:22;56576.69;;;-142.13;76.41
11712;BME280;5912;51.034;6.984;2023-04-09T02:15:49;56600.72;;;-142.13;76.29
11712;BME280;5912;51.034;6.984;2023-04-09T02:18:25;56564.66;;;-142.13;75.81
11712;BME280;5912;51.034;6.984;2023-04-09T02:20:55;56630.78;;;-142.13;75.91
11712;BME280;5912;51.034;6.984;2023-04-09T02:23:21;56596.72;;;-142.13;75.74
11712;BME280;5912;51.034;6.984;2023-04-09T02:25:46;56634.78;;;-142.13;75.75
11712;BME280;5912;51.034;6.984;2023-04-09T02:28:12;56608.75;;;-142.13;75.58
11712;BME280;5912;51.034;6.984;2023-04-09T02:30:37;56600.72;;;-142.13;75.28
11712;BME280;5912;51.034;6.984;2023-04-09T02:33:03;56588.69;;;-142.13;75.03
11712;BME280;5912;51.034;6.984;2023-04-09T02:35:28;56592.72;;;-142.13;75.25
11712;BME280;5912;51.034;6.984;2023-04-09T02:37:53;56592.72;;;-142.13;75.15
11712;BME280;5912;51.034;6.984;2023-04-09T02:40:19;56600.72;;;-142.13;75.11
11712;BME280;5912;51.034;6.984;2023-04-09T02:42:45;56594.72;;;-142.13;75.05
11712;BME280;5912;51.034;6.984;2023-04-09T02:45:10;56632.78;;;-142.13;75.21
11712;BME280;5912;51.034;6.984;2023-04-09T02:47:35;56592.72;;;-142.13;74.95
11712;BME280;5912;51.034;6.984;2023-04-09T02:50:00;56576.69;;;-142.13;74.89
11712;BME280;5912;51.034;6.984;2023-04-09T02:52:26;56616.75;;;-142.13;74.78
11712;BME280;5912;51.034;6.984;2023-04-09T02:54:51;56604.72;;;-142.13;74.75
11712;BME280;5912;51.034;6.984;2023-04-09T02:57:17;56620.75;;;-142.13;74.53
11712;BME280;5912;51.034;6.984;2023-04-09T02:59:43;56632.78;;;-142.13;74.47
11712;BME280;5912;51.034;6.984;2023-04-09T03:02:09;56610.75;;;-142.13;74.59
11712;BME280;5912;51.034;6.984;2023-04-09T03:04:34;56610.75;;;-142.13;75.25
11712;BME280;5912;51.034;6.984;2023-04-09T03:06:59;56612.75;;;-142.13;74.78
11712;BME280;5912;51.034;6.984;2023-04-09T03:09:25;56570.69;;;-142.13;74.73
11712;BME280;5912;51.034;6.984;2023-04-09T03:11:50;56590.72;;;-142.13;74.88
11712;BME280;5912;51.034;6.984;2023-04-09T03:14:15;56640.78;;;-142.13;74.95
11712;BME280;5912;51.034;6.984;2023-04-09T03:16:40;56628.78;;;-142.13;74.95
11712;BME280;5912;51.034;6.984;2023-04-09T03:19:06;56616.75;;;-142.13;75.21
11712;BME280;5912;51.034;6.984;2023-04-09T03:21:31;56618.75;;;-142.13;74.74
11712;BME280;5912;51.034;6.984;2023-04-09T03:23:57;56628.78;;;-142.13;74.79
11712;BME280;5912;51.034;6.984;2023-04-09T03:26:22;56576.69;;;-142.13;74.79
11712;BME280;5912;51.034;6.984;2023-04-09T03:28:47;56636.78;;;-142.13;75.12
11712;BME280;5912;51.034;6.984;2023-04-09T03:31:13;56606.75;;;-142.13;74.77
11712;BME280;5912;51.034;6.984;2023-04-09T03:33:38;56612.75;;;-142.13;74.95
11712;BME280;5912;51.034;6.984;2023-04-09T03:36:04;56666.84;;;-142.13;74.91
11712;BME280;5912;51.034;6.984;2023-04-09T03:38:29;56640.78;;;-142.13;75.49
11712;BME280;5912;51.034;6.984;2023-04-09T03:40:55;56626.78;;;-142.13;75.36
11712;BME280;5912;51.034;6.984;2023-04-09T03:43:20;56654.81;;;-142.13;74.80
11712;BME280;5912;51.034;6.984;2023-04-09T03:45:46;56628.78;;;-142.13;75.26
11712;BME280;5912;51.034;6.984;2023-04-09T03:48:11;56614.75;;;-142.13;75.41
11712;BME280;5912;51.034;6.984;2023-04-09T03:50:40;56632.78;;;-142.13;75.56
11712;BME280;5912;51.034;6.984;2023-04-09T03:53:06;56616.75;;;-142.13;75.61
11712;BME280;5912;51.034;6.984;2023-04-09T03:55:32;56616.75;;;-142.13;75.22
11712;BME280;5912;51.034;6.984;2023-04-09T03:57:57;56656.81;;;-142.13;75.44
11712;BME280;5912;51.034;6.984;2023-04-09T04:00:22;56666.84;;;-142.13;74.66
11712;BME280;5912;51.034;6.984;2023-04-09T04:02:47;56618.75;;;-142.13;75.26
11712;BME280;5912;51.034;6.984;2023-04-09T04:05:13;56648.81;;;-142.13;75.25
11712;BME280;5912;51.034;6.984;2023-04-09T04:07:38;56638.78;;;-142.13;74.76
11712;BME280;5912;51.034;6.984;2023-04-09T04:10:05;56636.78;;;-142.13;75.41
11712;BME280;5912;51.034;6.984;2023-04-09T04:12:30;56634.78;;;-142.13;75.25
11712;BME280;5912;51.034;6.984;2023-04-09T04:14:56;56626.78;;;-142.13;75.38
11712;BME280;5912;51.034;6.984;2023-04-09T04:17:21;56626.78;;;-142.13;75.32
11712;BME280;5912;51.034;6.984;2023-04-09T04:19:46;56660.81;;;-142.13;75.30
11712;BME280;5912;51.034;6.984;2023-04-09T04:22:12;56628.78;;;-142.13;74.82
11712;BME280;5912;51.034;6.984;2023-04-09T04:24:37;56628.78;;;-142.13;75.07
11712;BME280;5912;51.034;6.984;2023-04-09T04:27:02;56630.78;;;-142.13;75.55
11712;BME280;5912;51.034;6.984;2023-04-09T04:29:28;56652.81;;;-142.13;75.43
11712;BME280;5912;51.034;6.984;2023-04-09T04:31:53;56678.84;;;-142.13;75.25
11712;BME280;5912;51.034;6.984;2023-04-09T04:34:19;56626.78;;;-142.13;75.57
11712;BME280;5912;51.034;6.984;2023-04-09T04:36:44;56670.84;;;-142.13;75.31
11712;BME280;5912;51.034;6.984;2023-04-09T04:39:09;56664.84;;;-142.13;74.96
11712;BME280;5912;51.034;6.984;2023-04-09T04:41:35;56642.78;;;-142.13;75.37
11712;BME280;5912;51.034;6.984;2023-04-09T04:44:00;56636.78;;;-142.13;74.64
11712;BME280;5912;51.034;6.984;2023-04-09T04:46:25;56656.81;;;-142.13;75.29
11712;BME280;5912;51.034;6.984;2023-04-09T04:48:51;56646.81;;;-142.13;75.32
11712;BME280;5912;51.034;6.984;2023-04-09T04:51:16;56632.78;;;-142.13;74.93
11712;BME280;5912;51.034;6.984;2023-04-09T04:53:41;56640.78;;;-142.13;75.11
11712;BME280;5912;51.034;6.984;2023-04-09T04:56:12;56652.81;;;-142.13;74.75
11712;BME280;5912;51.034;6.984;2023-04-09T04:58:38;56676.84;;;-142.13;74.78
11712;BME280;5912;51.034;6.984;2023-04-09T05:01:03;56660.81;;;-142.13;75.21
11712;BME280;5912;51.034;6.984;2023-04-09T05:03:29;56630.78;;;-142.13;74.43
11712;BME280;5912;51.034;6.984;2023-04-09T05:05:54;56652.81;;;-142.13;75.12
11712;BME280;5912;51.034;6.984;2023-04-09T05:08:19;56696.88;;;-142.13;74.36
11712;BME280;5912;51.034;6.984;2023-04-09T05:10:45;56670.84;;;-142.13;74.74
11712;BME280;5912;51.034;6.984;2023-04-09T05:13:11;56678.84;;;-142.13;74.92
11712;BME280;5912;51.034;6.984;2023-04-09T05:15:37;56670.84;;;-142.13;74.68
11712;BME280;5912;51.034;6.984;2023-04-09T05:18:03;56660.81;;;-142.13;74.18
11712;BME280;5912;51.034;6.984;2023-04-09T05:20:28;56674.84;;;-142.13;74.04
11712;BME280;5912;51.034;6.984;2023-04-09T05:22:54;56648.81;;;-142.13;74.36
11712;BME280;5912;51.034;6.984;2023-04-09T05:25:19;56666.84;;;-142.13;73.53
11712;BME280;5912;51.034;6.984;2023-04-09T05:27:45;56648.81;;;-142.13;73.93
11712;BME280;5912;51.034;6.984;2023-04-09T05:30:10;56644.81;;;-142.13;74.08
11712;BME280;5912;51.034;6.984;2023-04-09T05:32:36;56628.78;;;-142.13;73.70
11712;BME280;5912;51.034;6.984;2023-04-09T05:35:01;56656.81;;;-142.13;72.95
11712;BME280;5912;51.034;6.984;2023-04-09T05:37:26;56664.84;;;-142.13;73.48
11712;BME280;5912;51.034;6.984;2023-04-09T05:39:52;56622.75;;;-142.13;72.83
11712;BME280;5912;51.034;6.984;2023-04-09T05:42:17;56662.81;;;-142.13;72.75
11712;BME280;5912;51.034;6.984;2023-04-09T05:44:42;56652.81;;;-142.13;72.99
11712;BME280;5912;51.034;6.984;2023-04-09T05:47:07;56628.78;;;-142.13;72.07
11712;BME280;5912;51.034;6.984;2023-04-09T05:49:33;56634.78;;;-142.13;72.24
11712;BME280;5912;51.034;6.984;2023-04-09T05:51:58;56612.75;;;-142.13;71.85
11712;BME280;5912;51.034;6.984;2023-04-09T05:54:23;56632.78;;;-142.13;71.35
11712;BME280;5912;51.034;6.984;2023-04-09T05:56:50;56586.69;;;-142.13;71.32
11712;BME280;5912;51.034;6.984;2023-04-09T05:59:16;56604.72;;;-142.13;70.37
11712;BME280;5912;51.034;6.984;2023-04-09T06:01:42;56628.78;;;-142.13;70.27
11712;BME280;5912;51.034;6.984;2023-04-09T06:04:07;56622.75;;;-142.13;69.44
11712;BME280;5912;51.034;6.984;2023-04-09T06:06:33;56588.69;;;-142.13;69.23
11712;BME280;5912;51.034;6.984;2023-04-09T06:08:58;56624.75;;;-142.13;69.07
11712;BME280;5912;51.034;6.984;2023-04-09T06:11:23;56616.75;;;-142.13;68.76
11712;BME280;5912;51.034;6.984;2023-04-09T06:13:50;56602.72;;;-142.13;68.54
11712;BME280;5912;51.034;6.984;2023-04-09T06:16:15;56580.69;;;-142.13;67.96
11712;BME280;5912;51.034;6.984;2023-04-09T06:18:41;56592.72;;;-142.13;67.60
11712;BME280;5912;51.034;6.984;2023-04-09T06:21:08;56608.75;;;-142.13;67.12
11712;BME280;5912;51.034;6.984;2023-04-09T06:23:34;56584.69;;;-142.13;66.41
11712;BME280;5912;51.034;6.984;2023-04-09T06:26:00;56556.66;;;-142.13;65.72
11712;BME280;5912;51.034;6.984;2023-04-09T06:28:27;56568.66;;;-142.13;64.73
11712;BME280;5912;51.034;6.984;2023-04-09T06:30:52;56568.66;;;-142.13;64.37
11712;BME280;5912;51.034;6.984;2023-04-09T06:33:19;56592.72;;;-142.13;63.39
11712;BME280;5912;51.034;6.984;2023-04-09T06:35:45;56576.69;;;-142.13;63.43
11712;BME280;5912;51.034;6.984;2023-04-09T06:38:10;56536.63;;;-142.13;62.45
11712;BME280;5912;51.034;6.984;2023-04-09T06:40:38;56556.66;;;-142.13;61.48
11712;BME280;5912;51.034;6.984;2023-04-09T06:43:05;56524.59;;;-142.13;60.57
11712;BME280;5912;51.034;6.984;2023-04-09T06:45:30;56538.63;;;-142.13;60.30
11712;BME280;5912;51.034;6.984;2023-04-09T06:47:57;56500.56;;;-142.13;59.75
11712;BME280;5912;51.034;6.984;2023-04-09T06:50:22;56536.63;;;-142.13;59.79
11712;BME280;5912;51.034;6.984;2023-04-09T06:52:47;56510.56;;;-142.13;58.88
11712;BME280;5912;51.034;6.984;2023-04-09T06:55:13;56482.53;;;-142.13;57.58
11712;BME280;5912;51.034;6.984;2023-04-09T06:57:38;56488.53;;;-142.13;55.77
11712;BME280;5912;51.034;6.984;2023-04-09T07:00:04;56472.50;;;-142.13;52.06
11712;BME280;5912;51.034;6.984;2023-04-09T07:02:30;56458.50;;;-142.13;50.90
11712;BME280;5912;51.034;6.984;2023-04-09T07:04:55;56416.44;;;-142.13;49.43
11712;BME280;5912;51.034;6.984;2023-04-09T07:07:20;56436.47;;;-142.13;47.12
11712;BME280;5912;51.034;6.984;2023-04-09T07:09:47;56454.47;;;-142.13;46.80
11712;BME280;5912;51.034;6.984;2023-04-09T07:12:12;56416.44;;;-142.13;46.71
11712;BME280;5912;51.034;6.984;2023-04-09T07:14:37;56426.44;;;-142.13;46.17
11712;BME280;5912;51.034;6.984;2023-04-09T07:17:03;56400.41;;;-142.13;46.52
11712;BME280;5912;51.034;6.984;2023-04-09T07:19:28;56424.44;;;-142.13;45.35
11712;BME280;5912;51.034;6.984;2023-04-09T07:21:53;56400.41;;;-142.13;44.86
11712;BME280;5912;51.034;6.984;2023-04-09T07:24:19;56418.44;;;-142.13;44.21
11712;BME280;5912;51.034;6.984;2023-04-09T07:26:44;56394.38;;;-142.13;44.28
11712;BME280;5912;51.034;6.984;2023-04-09T07:29:10;56408.41;;;-142.13;44.42
11712;BME280;5912;51.034;6.984;2023-04-09T07:31:35;56420.44;;;-142.13;42.74
11712;BME280;5912;51.034;6.984;2023-04-09T07:34:01;56384.38;;;-142.13;42.34
11712;BME280;5912;51.034;6.984;2023-04-09T07:36:26;56380.38;;;-142.13;41.67
11712;BME280;5912;51.034;6.984;2023-04-09T07:38:52;56388.38;;;-142.13;41.31
11712;BME280;5912;51.034;6.984;2023-04-09T07:41:17;56366.34;;;-142.13;40.59
11712;BME280;5912;51.034;6.984;2023-04-09T07:43:42;56430.44;;;-142.13;40.55
11712;BME280;5912;51.034;6.984;2023-04-09T07:46:08;56380.38;;;-142.13;40.86
11712;BME280;5912;51.034;6.984;2023-04-09T07:48:33;56362.34;;;-142.13;39.87
11712;BME280;5912;51.034;6.984;2023-04-09T07:50:58;56368.34;;;-142.13;39.73
11712;BME280;5912;51.034;6.984;2023-04-09T07:53:24;56356.31;;;-142.13;40.47
11712;BME280;5912;51.034;6.984;2023-04-09T07:55:50;56342.31;;;-142.13;38.84
11712;BME280;5912;51.034;6.984;2023-04-09T07:58:16;56320.28;;;-142.13;39.32
11712;BME280;5912;51.034;6.984;2023-04-09T08:00:41;56284.22;;;-142.13;38.45
11712;BME280;5912;51.034;6.984;2023-04-09T08:03:06;56288.22;;;-142.13;37.49
11712;BME280;5912;51.034;6.984;2023-04-09T08:05:32;56278.19;;;-142.13;35.87
11712;BME280;5912;51.034;6.984;2023-04-09T08:07:57;56274.19;;;-142.13;35.79
11712;BME280;5912;51.034;6.984;2023-04-09T08:10:22;56272.19;;;-142.13;35.56
11712;BME280;5912;51.034;6.984;2023-04-09T08:12:48;56256.16;;;-142.13;35.80
11712;BME280;5912;51.034;6.984;2023-04-09T08:15:13;56252.16;;;-142.13;34.50
11712;BME280;5912;51.034;6.984;2023-04-09T08:17:39;56172.03;;;-142.13;34.37
11712;BME280;5912;51.034;6.984;2023-04-09T08:20:05;56208.09;;;-142.13;34.38
11712;BME280;5912;51.034;6.984;2023-04-09T08:22:31;56212.09;;;-142.13;33.55
11712;BME280;5912;51.034;6.984;2023-04-09T08:24:56;56216.09;;;-142.13;33.63
11712;BME280;5912;51.034;6.984;2023-04-09T08:27:23;56198.06;;;-142.13;33.09
11712;BME280;5912;51.034;6.984;2023-04-09T08:29:48;56182.06;;;-142.13;33.07
11712;BME280;5912;51.034;6.984;2023-04-09T08:32:14;56196.06;;;-142.13;31.81
11712;BME280;5912;51.034;6.984;2023-04-09T08:34:39;56172.03;;;-142.13;30.98
11712;BME280;5912;51.034;6.984;2023-04-09T08:37:05;56192.06;;;-142.13;31.41
11712;BME280;5912;51.034;6.984;2023-04-09T08:39:31;56168.03;;;-142.13;31.58
11712;BME280;5912;51.034;6.984;2023-04-09T08:41:59;56148.00;;;-142.13;32.01
11712;BME280;5912;51.034;6.984;2023-04-09T08:44:26;56176.03;;;-142.13;31.55
11712;BME280;5912;51.034;6.984;2023-04-09T08:46:51;56148.00;;;-142.13;31.19
11712;BME280;5912;51.034;6.984;2023-04-09T08:49:18;56131.97;;;-142.13;31.14
11712;BME280;5912;51.034;6.984;2023-04-09T08:51:47;56123.97;;;-142.13;30.95
11712;BME280;5912;51.034;6.984;2023-04-09T08:54:14;56115.94;;;-142.13;30.60
11712;BME280;5912;51.034;6.984;2023-04-09T08:56:40;56103.94;;;-142.13;30.75
11712;BME280;5912;51.034;6.984;2023-04-09T08:59:05;56119.97;;;-142.13;29.34
11712;BME280;5912;51.034;6.984;2023-04-09T09:01:31;56113.94;;;-142.13;29.71
11712;BME280;5912;51.034;6.984;2023-04-09T09:04:03;56107.94;;;-142.13;29.60
11712;BME280;5912;51.034;6.984;2023-04-09T09:06:30;56312.25;;;-142.13;29.02
11712;BME280;5912;51.034;6.984;2023-04-09T09:09:13;56107.94;;;-142.13;29.32
11712;BME280;5912;51.034;6.984;2023-04-09T09:11:41;56099.94;;;-142.13;29.61
11712;BME280;5912;51.034;6.984;2023-04-09T09:14:09;56071.88;;;-142.13;29.21
11712;BME280;5912;51.034;6.984;2023-04-09T09:16:36;56063.88;;;-142.13;28.77
11712;BME280;5912;51.034;6.984;2023-04-09T09:19:08;56075.88;;;-142.13;27.95
11712;BME280;5912;51.034;6.984;2023-04-09T09:21:33;56067.88;;;-142.13;27.95
11712;BME280;5912;51.034;6.984;2023-04-09T09:24:01;56111.94;;;-142.13;28.02
11712;BME280;5912;51.034;6.984;2023-04-09T09:26:28;56105.94;;;-142.13;28.55
11712;BME280;5912;51.034;6.984;2023-04-09T09:28:54;56105.94;;;-142.13;28.72
11712;BME280;5912;51.034;6.984;2023-04-09T09:31:21;56059.88;;;-142.13;28.34
11712;BME280;5912;51.034;6.984;2023-04-09T09:33:47;56113.94;;;-142.13;27.85
11712;BME280;5912;51.034;6.984;2023-04-09T09:36:14;56119.97;;;-142.13;28.03
11712;BME280;5912;51.034;6.984;2023-04-09T09:38:57;56111.94;;;-142.13;28.19
11712;BME280;5912;51.034;6.984;2023-04-09T09:41:23;56075.88;;;-142.13;27.82
11712;BME280;5912;51.034;6.984;2023-04-09T09:43:49;56089.91;;;-142.13;27.39
11712;BME280;5912;51.034;6.984;2023-04-09T09:46:15;56059.88;;;-142.13;27.97
11712;BME280;5912;51.034;6.984;2023-04-09T09:48:41;56067.88;;;-142.13;26.97
11712;BME280;5912;51.034;6.984;2023-04-09T09:51:08;56061.88;;;-142.13;26.19
11712;BME280;5912;51.034;6.984;2023-04-09T09:53:39;56045.84;;;-142.13;26.31
11712;BME280;5912;51.034;6.984;2023-04-09T09:56:06;56053.84;;;-142.13;26.31
11712;BME280;5912;51.034;6.984;2023-04-09T09:58:48;56041.84;;;-142.13;25.68
11712;BME280;5912;51.034;6.984;2023-04-09T10:01:18;56085.91;;;-142.13;26.56
11712;BME280;5912;51.034;6.984;2023-04-09T10:03:44;56071.88;;;-142.13;26.61
11712;BME280;5912;51.034;6.984;2023-04-09T10:06:10;56067.88;;;-142.13;26.56
11712;BME280;5912;51.034;6.984;2023-04-09T10:08:39;56089.91;;;-142.13;26.76
11712;BME280;5912;51.034;6.984;2023-04-09T10:11:06;56091.91;;;-142.13;26.67
11712;BME280;5912;51.034;6.984;2023-04-09T10:13:38;56087.91;;;-142.13;26.31
11712;BME280;5912;51.034;6.984;2023-04-09T10:16:04;56083.91;;;-142.13;26.90
11712;BME280;5912;51.034;6.984;2023-04-09T10:18:31;56041.84;;;-142.13;26.53
11712;BME280;5912;51.034;6.984;2023-04-09T10:21:13;56025.81;;;-142.13;26.80
11712;BME280;5912;51.034;6.984;2023-04-09T10:23:40;55995.78;;;-142.13;24.94
11712;BME280;5912;51.034;6.984;2023-04-09T10:26:06;56031.81;;;-142.13;24.87
11712;BME280;5912;51.034;6.984;2023-04-09T10:28:32;56055.84;;;-142.13;25.23
11712;BME280;5912;51.034;6.984;2023-04-09T10:30:58;56035.81;;;-142.13;25.72
11712;BME280;5912;51.034;6.984;2023-04-09T10:33:25;56013.78;;;-142.13;25.41
11712;BME280;5912;51.034;6.984;2023-04-09T10:35:53;56003.78;;;-142.13;24.67
11712;BME280;5912;51.034;6.984;2023-04-09T10:38:36;55975.75;;;-142.13;24.93
11712;BME280;5912;51.034;6.984;2023-04-09T10:41:13;55969.72;;;-142.13;24.09
11712;BME280;5912;51.034;6.984;2023-04-09T10:43:40;55921.66;;;-142.13;24.83
11712;BME280;5912;51.034;6.984;2023-04-09T10:46:24;55983.75;;;-142.13;24.35
11712;BME280;5912;51.034;6.984;2023-04-09T10:49:20;56001.78;;;-142.13;24.82
11712;BME280;5912;51.034;6.984;2023-04-09T10:52:00;56011.78;;;-142.13;25.32
11712;BME280;5912;51.034;6.984;2023-04-09T10:59:37;56043.84;;;-142.13;24.66
11712;BME280;5912;51.034;6.984;2023-04-09T11:02:06;55973.75;;;-142.13;24.75
11712;BME280;5912;51.034;6.984;2023-04-09T11:04:40;55977.75;;;-142.13;25.34
11712;BME280;5912;51.034;6.984;2023-04-09T11:07:12;56035.81;;;-142.13;25.33
11712;BME280;5912;51.034;6.984;2023-04-09T11:09:40;56047.84;;;-142.13;25.48
11712;BME280;5912;51.034;6.984;2023-04-09T11:12:05;56071.88;;;-142.13;26.36
11712;BME280;5912;51.034;6.984;2023-04-09T11:14:32;56091.91;;;-142.13;26.98
11712;BME280;5912;51.034;6.984;2023-04-09T11:16:57;56055.84;;;-142.13;27.10
11712;BME280;5912;51.034;6.984;2023-04-09T11:19:22;56035.81;;;-142.13;25.90
11712;BME280;5912;51.034;6.984;2023-04-09T11:21:48;56035.81;;;-142.13;25.29
11712;BME280;5912;51.034;6.984;2023-04-09T11:24:14;56003.78;;;-142.13;24.88
11712;BME280;5912;51.034;6.984;2023-04-09T11:26:40;55961.72;;;-142.13;24.46
11712;BME280;5912;51.034;6.984;2023-04-09T11:29:06;55933.69;;;-142.13;23.98
11712;BME280;5912;51.034;6.984;2023-04-09T11:31:35;55957.72;;;-142.13;23.56
11712;BME280;5912;51.034;6.984;2023-04-09T11:34:01;55997.78;;;-142.13;24.68
11712;BME280;5912;51.034;6.984;2023-04-09T11:36:27;56039.84;;;-142.13;25.21
11712;BME280;5912;51.034;6.984;2023-04-09T11:38:54;56075.88;;;-142.13;25.46
11712;BME280;5912;51.034;6.984;2023-04-09T11:41:38;56025.81;;;-142.13;26.49
11712;BME280;5912;51.034;6.984;2023-04-09T11:44:04;56091.91;;;-142.13;26.36
11712;BME280;5912;51.034;6.984;2023-04-09T11:46:34;56103.94;;;-142.13;26.68
11712;BME280;5912;51.034;6.984;2023-04-09T11:49:00;56075.88;;;-142.13;26.53
11712;BME280;5912;51.034;6.984;2023-04-09T11:51:26;56019.81;;;-142.13;25.49
11712;BME280;5912;51.034;6.984;2023-04-09T11:53:52;55973.75;;;-142.13;25.26
11712;BME280;5912;51.034;6.984;2023-04-09T11:56:18;55957.72;;;-142.13;24.28
11712;BME280;5912;51.034;6.984;2023-04-09T11:58:46;55999.78;;;-142.13;24.27
11712;BME280;5912;51.034;6.984;2023-04-09T12:01:11;56027.81;;;-142.13;25.02
11712;BME280;5912;51.034;6.984;2023-04-09T12:03:37;56055.84;;;-142.13;25.50
11712;BME280;5912;51.034;6.984;2023-04-09T12:06:04;56099.94;;;-142.13;26.21
11712;BME280;5912;51.034;6.984;2023-04-09T12:08:32;56087.91;;;-142.13;26.64
11712;BME280;5912;51.034;6.984;2023-04-09T12:11:13;56133.97;;;-142.13;26.61
11712;BME280;5912;51.034;6.984;2023-04-09T12:13:38;56101.94;;;-142.13;26.58
11712;BME280;5912;51.034;6.984;2023-04-09T12:16:09;56135.97;;;-142.13;27.00
11712;BME280;5912;51.034;6.984;2023-04-09T12:18:35;56109.94;;;-142.13;27.37
11712;BME280;5912;51.034;6.984;2023-04-09T12:21:02;56117.97;;;-142.13;27.02
11712;BME280;5912;51.034;6.984;2023-04-09T12:23:27;56125.97;;;-142.13;27.11
11712;BME280;5912;51.034;6.984;2023-04-09T12:25:52;56115.94;;;-142.13;26.76
11712;BME280;5912;51.034;6.984;2023-04-09T12:28:19;56170.03;;;-142.13;27.49
11712;BME280;5912;51.034;6.984;2023-04-09T12:30:45;56172.03;;;-142.13;27.73
11712;BME280;5912;51.034;6.984;2023-04-09T12:33:11;56180.06;;;-142.13;27.74
11712;BME280;5912;51.034;6.984;2023-04-09T12:35:36;56154.00;;;-142.13;28.52
11712;BME280;5912;51.034;6.984;2023-04-09T12:38:02;56166.03;;;-142.13;27.97
11712;BME280;5912;51.034;6.984;2023-04-09T12:40:29;56180.06;;;-142.13;28.56
11712;BME280;5912;51.034;6.984;2023-04-09T12:42:54;56144.00;;;-142.13;28.99
11712;BME280;5912;51.034;6.984;2023-04-09T12:45:20;56142.00;;;-142.13;28.00
11712;BME280;5912;51.034;6.984;2023-04-09T12:47:45;56184.06;;;-142.13;27.67
11712;BME280;5912;51.034;6.984;2023-04-09T12:50:12;56156.00;;;-142.13;27.54
11712;BME280;5912;51.034;6.984;2023-04-09T12:52:37;56154.00;;;-142.13;27.85
11712;BME280;5912;51.034;6.984;2023-04-09T12:55:03;56188.06;;;-142.13;27.82
11712;BME280;5912;51.034;6.984;2023-04-09T12:57:29;56180.06;;;-142.13;28.49
11712;BME280;5912;51.034;6.984;2023-04-09T12:59:55;56156.00;;;-142.13;28.49
11712;BME280;5912;51.034;6.984;2023-04-09T13:02:22;56190.06;;;-142.13;28.68